sensor_id;sensor_type;location;lat;lon;timestamp;pressure;altitude;pressure_sealevel;temperature;humidity
70370;BME280;57790;51.356;-2.906;2023-04-26T00:01:16;101952.03;;;11.38;100.00
70370;BME280;57790;51.356;-2.906;2023-04-26T00:04:16;101942.53;;;11.36;100.00
70370;BME280;57790;51.356;-2.906;2023-04-26T00:07:16;101940.72;;;11.36;100.00
70370;BME280;57790;51.356;-2.906;2023-04-26T00:10:17;101940.03;;;11.34;100.00
70370;BME280;57790;51.356;-2.906;2023-04-26T00:13:17;101951.50;;;11.35;100.00
70370;BME280;57790;51.356;-2.906;2023-04-26T00:16:18;101945.75;;;11.29;100.00
70370;BME280;57790;51.356;-2.906;2023-04-26T00:19:19;101950.34;;;11.27;100.00
70370;BME280;57790;51.356;-2.906;2023-04-26T00:22:20;101936.66;;;11.22;100.00
70370;BME280;57790;51.356;-2.906;2023-04-26T00:25:20;101938.47;;;11.22;100.00
70370;BME280;57790;51.356;-2.906;2023-04-26T00:28:21;101934.13;;;11.21;100.00
70370;BME280;57790;51.356;-2.906;2023-04-26T00:31:21;101925.63;;;11.17;100.00
70370;BME280;57790;51.356;-2.906;2023-04-26T00:34:22;101922.00;;;11.18;100.00
70370;BME280;57790;51.356;-2.906;2023-04-26T00:37:22;101923.34;;;11.13;100.00
70370;BME280;57790;51.356;-2.906;2023-04-26T00:40:22;101915.66;;;11.10;100.00
70370;BME280;57790;51.356;-2.906;2023-04-26T00:43:23;101917.50;;;11.09;100.00
70370;BME280;57790;51.356;-2.906;2023-04-26T00:46:23;101931.88;;;11.07;100.00
70370;BME280;57790;51.356;-2.906;2023-04-26T00:49:24;101930.75;;;11.09;100.00
70370;BME280;57790;51.356;-2.906;2023-04-26T00:52:26;101937.03;;;11.08;100.00
70370;BME280;57790;51.356;-2.906;2023-04-26T00:55:26;101931.19;;;11.05;100.00
70370;BME280;57790;51.356;-2.906;2023-04-26T00:58:27;101924.19;;;11.03;100.00
70370;BME280;57790;51.356;-2.906;2023-04-26T01:01:28;101928.66;;;11.03;100.00
70370;BME280;57790;51.356;-2.906;2023-04-26T01:04:29;101921.09;;;10.98;100.00
70370;BME280;57790;51.356;-2.906;2023-04-26T01:07:30;101922.91;;;10.98;100.00
70370;BME280;57790;51.356;-2.906;2023-04-26T01:10:32;101926.53;;;10.97;100.00
70370;BME280;57790;51.356;-2.906;2023-04-26T01:13:34;101923.03;;;10.96;100.00
70370;BME280;57790;51.356;-2.906;2023-04-26T01:16:36;101922.34;;;10.94;100.00
70370;BME280;57790;51.356;-2.906;2023-04-26T01:19:46;101928.63;;;10.93;100.00
70370;BME280;57790;51.356;-2.906;2023-04-26T01:22:46;101927.09;;;10.91;100.00
70370;BME280;57790;51.356;-2.906;2023-04-26T01:25:47;101919.97;;;10.91;100.00
70370;BME280;57790;51.356;-2.906;2023-04-26T01:28:47;101921.91;;;10.89;100.00
70370;BME280;57790;51.356;-2.906;2023-04-26T01:31:48;101928.34;;;10.87;100.00
70370;BME280;57790;51.356;-2.906;2023-04-26T01:34:49;101930.72;;;10.90;100.00
70370;BME280;57790;51.356;-2.906;2023-04-26T01:37:49;101933.31;;;10.80;100.00
70370;BME280;57790;51.356;-2.906;2023-04-26T01:40:50;101939.75;;;10.78;100.00
70370;BME280;57790;51.356;-2.906;2023-04-26T01:43:50;101939.19;;;10.74;100.00
70370;BME280;57790;51.356;-2.906;2023-04-26T01:46:50;101930.25;;;10.75;100.00
70370;BME280;57790;51.356;-2.906;2023-04-26T01:49:51;101927.59;;;10.75;100.00
70370;BME280;57790;51.356;-2.906;2023-04-26T01:52:51;101916.16;;;10.75;100.00
70370;BME280;57790;51.356;-2.906;2023-04-26T01:55:52;101917.97;;;10.74;100.00
70370;BME280;57790;51.356;-2.906;2023-04-26T01:58:54;101899.78;;;10.69;100.00
70370;BME280;57790;51.356;-2.906;2023-04-26T02:01:55;101912.47;;;10.66;100.00
70370;BME280;57790;51.356;-2.906;2023-04-26T02:04:55;101915.97;;;10.66;100.00
70370;BME280;57790;51.356;-2.906;2023-04-26T02:07:56;101924.91;;;10.65;100.00
70370;BME280;57790;51.356;-2.906;2023-04-26T02:10:56;101911.78;;;10.64;100.00
70370;BME280;57790;51.356;-2.906;2023-04-26T02:13:57;101913.19;;;10.68;100.00
70370;BME280;57790;51.356;-2.906;2023-04-26T02:16:57;101906.06;;;10.68;100.00
70370;BME280;57790;51.356;-2.906;2023-04-26T02:19:58;101910.81;;;10.65;100.00
70370;BME280;57790;51.356;-2.906;2023-04-26T02:22:58;101909.53;;;10.59;100.00
70370;BME280;57790;51.356;-2.906;2023-04-26T02:25:58;101904.50;;;10.56;100.00
70370;BME280;57790;51.356;-2.906;2023-04-26T02:28:59;101900.41;;;10.52;100.00
70370;BME280;57790;51.356;-2.906;2023-04-26T02:31:59;101903.78;;;10.54;100.00
70370;BME280;57790;51.356;-2.906;2023-04-26T02:35:00;101899.59;;;10.52;100.00
70370;BME280;57790;51.356;-2.906;2023-04-26T02:38:00;101905.16;;;10.49;100.00
70370;BME280;57790;51.356;-2.906;2023-04-26T02:41:02;101903.34;;;10.49;100.00
70370;BME280;57790;51.356;-2.906;2023-04-26T02:44:02;101895.66;;;10.46;100.00
70370;BME280;57790;51.356;-2.906;2023-04-26T02:47:03;101900.00;;;10.47;100.00
70370;BME280;57790;51.356;-2.906;2023-04-26T02:50:07;101885.91;;;10.47;100.00
70370;BME280;57790;51.356;-2.906;2023-04-26T02:53:08;101882.28;;;10.48;100.00
70370;BME280;57790;51.356;-2.906;2023-04-26T02:56:08;101867.06;;;10.50;100.00
70370;BME280;57790;51.356;-2.906;2023-04-26T02:59:09;101863.44;;;10.51;100.00
70370;BME280;57790;51.356;-2.906;2023-04-26T03:02:09;101862.75;;;10.49;100.00
70370;BME280;57790;51.356;-2.906;2023-04-26T03:05:09;101860.38;;;10.46;100.00
70370;BME280;57790;51.356;-2.906;2023-04-26T03:08:10;101851.72;;;10.43;100.00
70370;BME280;57790;51.356;-2.906;2023-04-26T03:11:11;101846.53;;;10.42;100.00
70370;BME280;57790;51.356;-2.906;2023-04-26T03:14:11;101857.25;;;10.40;100.00
70370;BME280;57790;51.356;-2.906;2023-04-26T03:17:11;101856.56;;;10.38;100.00
70370;BME280;57790;51.356;-2.906;2023-04-26T03:20:12;101845.38;;;10.35;100.00
70370;BME280;57790;51.356;-2.906;2023-04-26T03:23:13;101845.38;;;10.35;100.00
70370;BME280;57790;51.356;-2.906;2023-04-26T03:26:13;101838.41;;;10.34;100.00
70370;BME280;57790;51.356;-2.906;2023-04-26T03:29:15;101845.25;;;10.36;100.00
70370;BME280;57790;51.356;-2.906;2023-04-26T03:32:15;101838.41;;;10.34;100.00
70370;BME280;57790;51.356;-2.906;2023-04-26T03:35:16;101843.97;;;10.31;100.00
70370;BME280;57790;51.356;-2.906;2023-04-26T03:38:16;101836.88;;;10.31;100.00
70370;BME280;57790;51.356;-2.906;2023-04-26T03:41:17;101837.38;;;10.25;100.00
70370;BME280;57790;51.356;-2.906;2023-04-26T03:44:17;101835.47;;;10.27;100.00
70370;BME280;57790;51.356;-2.906;2023-04-26T03:47:17;101838.81;;;10.29;100.00
70370;BME280;57790;51.356;-2.906;2023-04-26T03:50:18;101832.69;;;10.29;100.00
70370;BME280;57790;51.356;-2.906;2023-04-26T03:53:18;101832.81;;;10.27;100.00
70370;BME280;57790;51.356;-2.906;2023-04-26T03:56:19;101826.41;;;10.30;100.00
70370;BME280;57790;51.356;-2.906;2023-04-26T03:59:20;101815.94;;;10.28;100.00
70370;BME280;57790;51.356;-2.906;2023-04-26T04:02:20;101813.28;;;10.28;100.00
70370;BME280;57790;51.356;-2.906;2023-04-26T04:05:21;101815.34;;;10.25;100.00
70370;BME280;57790;51.356;-2.906;2023-04-26T04:08:21;101800.28;;;10.25;100.00
70370;BME280;57790;51.356;-2.906;2023-04-26T04:11:21;101798.88;;;10.21;100.00
70370;BME280;57790;51.356;-2.906;2023-04-26T04:14:22;101799.13;;;10.18;100.00
70370;BME280;57790;51.356;-2.906;2023-04-26T04:17:22;101800.09;;;10.17;100.00
70370;BME280;57790;51.356;-2.906;2023-04-26T04:20:23;101801.91;;;10.17;100.00
70370;BME280;57790;51.356;-2.906;2023-04-26T04:23:23;101797.44;;;10.17;100.00
70370;BME280;57790;51.356;-2.906;2023-04-26T04:26:23;101794.09;;;10.15;100.00
70370;BME280;57790;51.356;-2.906;2023-04-26T04:29:24;101796.16;;;10.11;100.00
70370;BME280;57790;51.356;-2.906;2023-04-26T04:32:25;101794.63;;;10.09;100.00
70370;BME280;57790;51.356;-2.906;2023-04-26T04:35:25;101792.66;;;10.11;100.00
70370;BME280;57790;51.356;-2.906;2023-04-26T04:38:28;101790.75;;;10.13;100.00
70370;BME280;57790;51.356;-2.906;2023-04-26T04:41:28;101797.97;;;10.11;100.00
70370;BME280;57790;51.356;-2.906;2023-04-26T04:44:29;101794.09;;;10.15;100.00
70370;BME280;57790;51.356;-2.906;2023-04-26T04:47:30;101798.94;;;10.10;100.00
70370;BME280;57790;51.356;-2.906;2023-04-26T04:50:31;101809.28;;;10.13;100.00
70370;BME280;57790;51.356;-2.906;2023-04-26T04:53:31;101805.22;;;10.09;100.00
70370;BME280;57790;51.356;-2.906;2023-04-26T04:56:31;101802.84;;;10.06;100.00
70370;BME280;57790;51.356;-2.906;2023-04-26T04:59:32;101812.03;;;10.02;100.00
70370;BME280;57790;51.356;-2.906;2023-04-26T05:02:32;101821.09;;;9.99;100.00
70370;BME280;57790;51.356;-2.906;2023-04-26T05:05:33;101815.03;;;9.97;100.00
70370;BME280;57790;51.356;-2.906;2023-04-26T05:08:33;101812.66;;;9.94;100.00
70370;BME280;57790;51.356;-2.906;2023-04-26T05:11:34;101804.03;;;9.92;100.00
70370;BME280;57790;51.356;-2.906;2023-04-26T05:14:34;101802.91;;;9.95;100.00
70370;BME280;57790;51.356;-2.906;2023-04-26T05:17:35;101799.69;;;9.91;100.00
70370;BME280;57790;51.356;-2.906;2023-04-26T05:20:36;101803.31;;;9.90;100.00
70370;BME280;57790;51.356;-2.906;2023-04-26T05:23:36;101792.84;;;9.89;100.00
70370;BME280;57790;51.356;-2.906;2023-04-26T05:26:36;101802.22;;;9.93;100.00
70370;BME280;57790;51.356;-2.906;2023-04-26T05:29:37;101792.19;;;9.96;100.00
70370;BME280;57790;51.356;-2.906;2023-04-26T05:32:37;101792.59;;;9.92;100.00
70370;BME280;57790;51.356;-2.906;2023-04-26T05:35:38;101791.47;;;9.94;100.00
70370;BME280;57790;51.356;-2.906;2023-04-26T05:38:38;101792.31;;;9.95;100.00
70370;BME280;57790;51.356;-2.906;2023-04-26T05:41:39;101790.63;;;9.94;100.00
70370;BME280;57790;51.356;-2.906;2023-04-26T05:44:39;101775.16;;;9.89;100.00
70370;BME280;57790;51.356;-2.906;2023-04-26T05:47:39;101786.72;;;9.88;100.00
70370;BME280;57790;51.356;-2.906;2023-04-26T05:50:40;101772.38;;;9.91;100.00
70370;BME280;57790;51.356;-2.906;2023-04-26T05:53:40;101773.34;;;9.90;100.00
70370;BME280;57790;51.356;-2.906;2023-04-26T05:56:41;101776.63;;;9.82;100.00
70370;BME280;57790;51.356;-2.906;2023-04-26T05:59:42;101773.41;;;9.78;100.00
70370;BME280;57790;51.356;-2.906;2023-04-26T06:02:43;101781.50;;;9.77;100.00
70370;BME280;57790;51.356;-2.906;2023-04-26T06:05:45;101778.72;;;9.78;100.00
70370;BME280;57790;51.356;-2.906;2023-04-26T06:08:45;101774.09;;;9.71;100.00
70370;BME280;57790;51.356;-2.906;2023-04-26T06:11:46;101771.59;;;9.69;100.00
70370;BME280;57790;51.356;-2.906;2023-04-26T06:14:46;101779.00;;;9.75;100.00
70370;BME280;57790;51.356;-2.906;2023-04-26T06:17:46;101781.63;;;9.75;100.00
70370;BME280;57790;51.356;-2.906;2023-04-26T06:20:47;101786.81;;;9.77;100.00
70370;BME280;57790;51.356;-2.906;2023-04-26T06:23:47;101790.41;;;9.76;100.00
70370;BME280;57790;51.356;-2.906;2023-04-26T06:26:48;101781.38;;;9.78;100.00
70370;BME280;57790;51.356;-2.906;2023-04-26T06:29:49;101790.72;;;9.82;100.00
70370;BME280;57790;51.356;-2.906;2023-04-26T06:32:49;101787.84;;;9.86;100.00
70370;BME280;57790;51.356;-2.906;2023-04-26T06:35:50;101798.16;;;9.89;100.00
70370;BME280;57790;51.356;-2.906;2023-04-26T06:38:51;101799.44;;;9.94;100.00
70370;BME280;57790;51.356;-2.906;2023-04-26T06:41:51;101800.25;;;9.95;100.00
70370;BME280;57790;51.356;-2.906;2023-04-26T06:44:52;101800.81;;;9.89;100.00
70370;BME280;57790;51.356;-2.906;2023-04-26T06:47:52;101805.84;;;9.92;100.00
70370;BME280;57790;51.356;-2.906;2023-04-26T06:50:53;101807.00;;;9.99;100.00
70370;BME280;57790;51.356;-2.906;2023-04-26T06:53:53;101802.91;;;9.95;100.00
70370;BME280;57790;51.356;-2.906;2023-04-26T06:56:53;101801.09;;;9.95;100.00
70370;BME280;57790;51.356;-2.906;2023-04-26T06:59:54;101808.06;;;9.96;100.00
70370;BME280;57790;51.356;-2.906;2023-04-26T07:02:54;101803.63;;;9.97;100.00
70370;BME280;57790;51.356;-2.906;2023-04-26T07:05:55;101799.88;;;9.99;100.00
70370;BME280;57790;51.356;-2.906;2023-04-26T07:08:59;101796.97;;;10.02;100.00
70370;BME280;57790;51.356;-2.906;2023-04-26T07:12:00;101797.66;;;10.04;100.00
70370;BME280;57790;51.356;-2.906;2023-04-26T07:15:02;101803.53;;;10.08;100.00
70370;BME280;57790;51.356;-2.906;2023-04-26T07:18:02;101810.22;;;10.12;100.00
70370;BME280;57790;51.356;-2.906;2023-04-26T07:21:03;101826.13;;;10.12;100.00
70370;BME280;57790;51.356;-2.906;2023-04-26T07:24:03;101809.41;;;10.11;100.00
70370;BME280;57790;51.356;-2.906;2023-04-26T07:27:04;101817.09;;;10.14;100.00
70370;BME280;57790;51.356;-2.906;2023-04-26T07:30:05;101812.38;;;10.18;100.00
70370;BME280;57790;51.356;-2.906;2023-04-26T07:33:05;101813.91;;;10.21;100.00
70370;BME280;57790;51.356;-2.906;2023-04-26T07:36:06;101801.63;;;10.20;100.00
70370;BME280;57790;51.356;-2.906;2023-04-26T07:39:07;101805.84;;;10.22;100.00
70370;BME280;57790;51.356;-2.906;2023-04-26T07:42:09;101803.06;;;10.24;100.00
70370;BME280;57790;51.356;-2.906;2023-04-26T07:45:10;101803.66;;;10.27;100.00
70370;BME280;57790;51.356;-2.906;2023-04-26T07:48:10;101807.00;;;10.29;100.00
70370;BME280;57790;51.356;-2.906;2023-04-26T07:51:11;101802.84;;;10.36;100.00
70370;BME280;57790;51.356;-2.906;2023-04-26T07:54:12;101802.31;;;10.42;100.00
70370;BME280;57790;51.356;-2.906;2023-04-26T07:57:12;101805.38;;;10.48;100.00
70370;BME280;57790;51.356;-2.906;2023-04-26T08:00:13;101798.97;;;10.50;100.00
70370;BME280;57790;51.356;-2.906;2023-04-26T08:03:15;101807.63;;;10.52;100.00
70370;BME280;57790;51.356;-2.906;2023-04-26T08:06:18;101805.53;;;10.56;100.00
70370;BME280;57790;51.356;-2.906;2023-04-26T08:09:18;101811.28;;;10.61;100.00
70370;BME280;57790;51.356;-2.906;2023-04-26T08:12:18;101810.03;;;10.65;100.00
70370;BME280;57790;51.356;-2.906;2023-04-26T08:15:19;101810.72;;;10.67;100.00
70370;BME280;57790;51.356;-2.906;2023-04-26T08:18:19;101808.91;;;10.67;100.00
70370;BME280;57790;51.356;-2.906;2023-04-26T08:21:20;101804.91;;;10.73;100.00
70370;BME280;57790;51.356;-2.906;2023-04-26T08:24:20;101814.38;;;10.76;100.00
70370;BME280;57790;51.356;-2.906;2023-04-26T08:27:21;101813.13;;;10.80;100.00
70370;BME280;57790;51.356;-2.906;2023-04-26T08:30:21;101809.09;;;10.85;100.00
70370;BME280;57790;51.356;-2.906;2023-04-26T08:33:22;101799.03;;;10.89;100.00
70370;BME280;57790;51.356;-2.906;2023-04-26T08:36:22;101804.91;;;10.92;100.00
70370;BME280;57790;51.356;-2.906;2023-04-26T08:39:23;101798.34;;;10.96;100.00
70370;BME280;57790;51.356;-2.906;2023-04-26T08:42:27;101795.44;;;10.99;100.00
70370;BME280;57790;51.356;-2.906;2023-04-26T08:45:27;101801.28;;;11.03;100.00
70370;BME280;57790;51.356;-2.906;2023-04-26T08:48:31;101792.22;;;11.06;100.00
70370;BME280;57790;51.356;-2.906;2023-04-26T08:51:34;101803.09;;;11.02;100.00
70370;BME280;57790;51.356;-2.906;2023-04-26T08:54:36;101796.69;;;11.05;100.00
70370;BME280;57790;51.356;-2.906;2023-04-26T08:57:38;101792.06;;;11.07;100.00
70370;BME280;57790;51.356;-2.906;2023-04-26T09:00:42;101798.63;;;11.13;100.00
70370;BME280;57790;51.356;-2.906;2023-04-26T09:03:42;101794.44;;;11.20;100.00
70370;BME280;57790;51.356;-2.906;2023-04-26T09:06:43;101795.28;;;11.20;100.00
70370;BME280;57790;51.356;-2.906;2023-04-26T09:09:52;101799.06;;;11.18;100.00
70370;BME280;57790;51.356;-2.906;2023-04-26T09:12:54;101796.25;;;11.19;100.00
70370;BME280;57790;51.356;-2.906;2023-04-26T09:15:55;101797.25;;;11.18;100.00
70370;BME280;57790;51.356;-2.906;2023-04-26T09:18:55;101792.78;;;11.19;100.00
70370;BME280;57790;51.356;-2.906;2023-04-26T09:21:58;101796.66;;;11.24;100.00
70370;BME280;57790;51.356;-2.906;2023-04-26T09:24:59;101790.13;;;11.28;100.00
70370;BME280;57790;51.356;-2.906;2023-04-26T09:28:00;101791.91;;;11.28;100.00
70370;BME280;57790;51.356;-2.906;2023-04-26T09:31:01;101792.34;;;11.33;100.00
70370;BME280;57790;51.356;-2.906;2023-04-26T09:34:01;101793.72;;;11.37;100.00
70370;BME280;57790;51.356;-2.906;2023-04-26T09:37:01;101791.63;;;11.41;100.00
70370;BME280;57790;51.356;-2.906;2023-04-26T09:40:11;101787.00;;;11.43;100.00
70370;BME280;57790;51.356;-2.906;2023-04-26T09:43:19;101795.09;;;11.51;100.00
70370;BME280;57790;51.356;-2.906;2023-04-26T09:46:23;101788.53;;;11.55;100.00
70370;BME280;57790;51.356;-2.906;2023-04-26T09:49:25;101787.41;;;11.57;100.00
70370;BME280;57790;51.356;-2.906;2023-04-26T09:52:26;101788.25;;;11.58;100.00
70370;BME280;57790;51.356;-2.906;2023-04-26T09:55:29;101788.50;;;11.65;100.00
70370;BME280;57790;51.356;-2.906;2023-04-26T09:58:30;101785.56;;;11.68;100.00
70370;BME280;57790;51.356;-2.906;2023-04-26T10:01:31;101790.88;;;11.68;100.00
70370;BME280;57790;51.356;-2.906;2023-04-26T10:04:32;101786.81;;;11.73;100.00
70370;BME280;57790;51.356;-2.906;2023-04-26T10:07:33;101791.69;;;11.78;100.00
70370;BME280;57790;51.356;-2.906;2023-04-26T10:10:33;101799.41;;;11.81;100.00
70370;BME280;57790;51.356;-2.906;2023-04-26T10:13:35;101790.88;;;11.87;100.00
70370;BME280;57790;51.356;-2.906;2023-04-26T10:16:36;101795.88;;;11.90;100.00
70370;BME280;57790;51.356;-2.906;2023-04-26T10:19:42;101788.00;;;11.98;100.00
70370;BME280;57790;51.356;-2.906;2023-04-26T10:22:50;101774.72;;;11.98;100.00
70370;BME280;57790;51.356;-2.906;2023-04-26T10:25:53;101788.84;;;11.99;100.00
70370;BME280;57790;51.356;-2.906;2023-04-26T10:28:54;101777.78;;;12.03;100.00
70370;BME280;57790;51.356;-2.906;2023-04-26T10:35:11;101768.91;;;12.12;100.00
70370;BME280;57790;51.356;-2.906;2023-04-26T10:38:12;101777.59;;;12.14;100.00
70370;BME280;57790;51.356;-2.906;2023-04-26T10:41:33;101768.50;;;12.17;100.00
70370;BME280;57790;51.356;-2.906;2023-04-26T10:44:43;101770.31;;;12.16;100.00
70370;BME280;57790;51.356;-2.906;2023-04-26T10:47:44;101769.72;;;12.23;100.00
70370;BME280;57790;51.356;-2.906;2023-04-26T10:54:00;101766.56;;;12.37;100.00
70370;BME280;57790;51.356;-2.906;2023-04-26T10:57:01;101757.72;;;12.46;100.00
70370;BME280;57790;51.356;-2.906;2023-04-26T11:03:09;101754.50;;;12.42;100.00
70370;BME280;57790;51.356;-2.906;2023-04-26T11:06:10;101749.78;;;12.54;100.00
70370;BME280;57790;51.356;-2.906;2023-04-26T11:09:36;101749.94;;;12.52;100.00
70370;BME280;57790;51.356;-2.906;2023-04-26T11:12:40;101748.81;;;12.55;100.00
70370;BME280;57790;51.356;-2.906;2023-04-26T11:15:41;101754.97;;;12.56;100.00
70370;BME280;57790;51.356;-2.906;2023-04-26T11:18:43;101751.31;;;12.57;100.00
70370;BME280;57790;51.356;-2.906;2023-04-26T11:21:44;101741.16;;;12.70;100.00
70370;BME280;57790;51.356;-2.906;2023-04-26T11:24:45;101745.94;;;12.66;100.00
70370;BME280;57790;51.356;-2.906;2023-04-26T11:27:45;101749.28;;;12.68;100.00
70370;BME280;57790;51.356;-2.906;2023-04-26T11:30:50;101743.28;;;12.84;100.00
70370;BME280;57790;51.356;-2.906;2023-04-26T11:33:51;101739.47;;;12.87;100.00
70370;BME280;57790;51.356;-2.906;2023-04-26T11:36:52;101739.34;;;12.88;100.00
70370;BME280;57790;51.356;-2.906;2023-04-26T11:39:52;101733.91;;;12.98;100.00
70370;BME280;57790;51.356;-2.906;2023-04-26T11:42:53;101736.41;;;12.99;100.00
70370;BME280;57790;51.356;-2.906;2023-04-26T11:45:57;101737.69;;;13.13;100.00
70370;BME280;57790;51.356;-2.906;2023-04-26T11:48:59;101739.00;;;13.27;100.00
70370;BME280;57790;51.356;-2.906;2023-04-26T11:52:00;101730.84;;;13.28;100.00
70370;BME280;57790;51.356;-2.906;2023-04-26T11:55:04;101731.31;;;13.24;100.00
70370;BME280;57790;51.356;-2.906;2023-04-26T11:58:09;101724.69;;;13.28;100.00
70370;BME280;57790;51.356;-2.906;2023-04-26T12:01:10;101729.25;;;13.35;100.00
70370;BME280;57790;51.356;-2.906;2023-04-26T12:04:11;101727.25;;;13.37;100.00
70370;BME280;57790;51.356;-2.906;2023-04-26T12:07:11;101738.13;;;13.44;100.00
70370;BME280;57790;51.356;-2.906;2023-04-26T12:13:23;101738.03;;;13.54;100.00
70370;BME280;57790;51.356;-2.906;2023-04-26T12:16:24;101734.69;;;13.52;100.00
70370;BME280;57790;51.356;-2.906;2023-04-26T12:19:25;101736.34;;;13.53;100.00
70370;BME280;57790;51.356;-2.906;2023-04-26T12:22:25;101733.03;;;13.59;100.00
70370;BME280;57790;51.356;-2.906;2023-04-26T12:25:26;101730.28;;;13.68;100.00
70370;BME280;57790;51.356;-2.906;2023-04-26T12:28:26;101721.09;;;13.63;100.00
70370;BME280;57790;51.356;-2.906;2023-04-26T12:31:27;101728.34;;;13.79;100.00
70370;BME280;57790;51.356;-2.906;2023-04-26T12:34:27;101727.50;;;13.78;100.00
70370;BME280;57790;51.356;-2.906;2023-04-26T12:37:28;101724.19;;;13.76;100.00
70370;BME280;57790;51.356;-2.906;2023-04-26T12:40:28;101721.50;;;13.76;100.00
70370;BME280;57790;51.356;-2.906;2023-04-26T12:43:28;101707.84;;;13.79;100.00
70370;BME280;57790;51.356;-2.906;2023-04-26T12:46:29;101717.03;;;13.85;100.00
70370;BME280;57790;51.356;-2.906;2023-04-26T12:49:30;101712.09;;;13.98;100.00
70370;BME280;57790;51.356;-2.906;2023-04-26T12:52:31;101708.91;;;13.94;100.00
70370;BME280;57790;51.356;-2.906;2023-04-26T12:55:31;101712.25;;;13.96;100.00
70370;BME280;57790;51.356;-2.906;2023-04-26T12:58:32;101715.91;;;13.95;100.00
70370;BME280;57790;51.356;-2.906;2023-04-26T13:01:32;101717.44;;;13.98;100.00
70370;BME280;57790;51.356;-2.906;2023-04-26T13:04:33;101719.47;;;14.04;100.00
70370;BME280;57790;51.356;-2.906;2023-04-26T13:07:35;101723.25;;;14.02;100.00
70370;BME280;57790;51.356;-2.906;2023-04-26T13:10:36;101735.47;;;14.04;100.00
70370;BME280;57790;51.356;-2.906;2023-04-26T13:13:36;101733.63;;;14.05;100.00
70370;BME280;57790;51.356;-2.906;2023-04-26T13:16:37;101740.81;;;14.12;100.00
70370;BME280;57790;51.356;-2.906;2023-04-26T13:19:41;101738.97;;;14.13;100.00
70370;BME280;57790;51.356;-2.906;2023-04-26T13:22:41;101744.81;;;14.16;100.00
70370;BME280;57790;51.356;-2.906;2023-04-26T13:25:42;101742.69;;;14.20;100.00
70370;BME280;57790;51.356;-2.906;2023-04-26T13:28:43;101739.84;;;14.21;100.00
70370;BME280;57790;51.356;-2.906;2023-04-26T13:31:43;101748.03;;;14.28;100.00
70370;BME280;57790;51.356;-2.906;2023-04-26T13:34:43;101742.19;;;14.24;100.00
70370;BME280;57790;51.356;-2.906;2023-04-26T13:37:44;101740.53;;;14.23;100.00
70370;BME280;57790;51.356;-2.906;2023-04-26T13:40:45;101739.03;;;14.21;100.00
70370;BME280;57790;51.356;-2.906;2023-04-26T13:43:46;101736.84;;;14.24;100.00
70370;BME280;57790;51.356;-2.906;2023-04-26T13:46:46;101736.84;;;14.24;100.00
70370;BME280;57790;51.356;-2.906;2023-04-26T13:49:47;101738.53;;;14.25;100.00
70370;BME280;57790;51.356;-2.906;2023-04-26T13:52:47;101739.88;;;14.29;100.00
70370;BME280;57790;51.356;-2.906;2023-04-26T13:55:50;101746.19;;;14.28;100.00
70370;BME280;57790;51.356;-2.906;2023-04-26T13:58:53;101743.06;;;14.33;100.00
70370;BME280;57790;51.356;-2.906;2023-04-26T14:01:54;101735.91;;;14.34;100.00
70370;BME280;57790;51.356;-2.906;2023-04-26T14:04:55;101746.41;;;14.35;100.00
70370;BME280;57790;51.356;-2.906;2023-04-26T14:07:56;101740.91;;;14.37;100.00
70370;BME280;57790;51.356;-2.906;2023-04-26T14:10:56;101744.63;;;14.52;100.00
70370;BME280;57790;51.356;-2.906;2023-04-26T14:13:57;101734.59;;;14.46;100.00
70370;BME280;57790;51.356;-2.906;2023-04-26T14:16:58;101735.59;;;14.45;100.00
70370;BME280;57790;51.356;-2.906;2023-04-26T14:19:58;101731.28;;;14.44;100.00
70370;BME280;57790;51.356;-2.906;2023-04-26T14:22:58;101737.81;;;14.49;100.00
70370;BME280;57790;51.356;-2.906;2023-04-26T14:25:59;101734.78;;;14.44;100.00
70370;BME280;57790;51.356;-2.906;2023-04-26T14:28:59;101737.28;;;14.46;100.00
70370;BME280;57790;51.356;-2.906;2023-04-26T14:32:00;101731.63;;;14.57;100.00
70370;BME280;57790;51.356;-2.906;2023-04-26T14:35:01;101732.97;;;14.53;100.00
70370;BME280;57790;51.356;-2.906;2023-04-26T14:38:01;101736.31;;;14.55;100.00
70370;BME280;57790;51.356;-2.906;2023-04-26T14:41:01;101730.78;;;14.56;100.00
70370;BME280;57790;51.356;-2.906;2023-04-26T14:44:02;101717.47;;;14.56;100.00
70370;BME280;57790;51.356;-2.906;2023-04-26T14:47:02;101723.97;;;14.54;100.00
70370;BME280;57790;51.356;-2.906;2023-04-26T14:50:03;101726.28;;;14.57;100.00
70370;BME280;57790;51.356;-2.906;2023-04-26T14:53:04;101722.63;;;14.58;100.00
70370;BME280;57790;51.356;-2.906;2023-04-26T14:56:04;101726.13;;;14.58;100.00
70370;BME280;57790;51.356;-2.906;2023-04-26T14:59:06;101726.66;;;14.62;100.00
70370;BME280;57790;51.356;-2.906;2023-04-26T15:02:07;101731.66;;;14.65;100.00
70370;BME280;57790;51.356;-2.906;2023-04-26T15:05:08;101722.16;;;14.63;100.00
70370;BME280;57790;51.356;-2.906;2023-04-26T15:08:09;101737.84;;;14.66;100.00
70370;BME280;57790;51.356;-2.906;2023-04-26T15:11:10;101731.00;;;14.71;100.00
70370;BME280;57790;51.356;-2.906;2023-04-26T15:14:10;101738.50;;;14.68;100.00
70370;BME280;57790;51.356;-2.906;2023-04-26T15:17:11;101735.81;;;14.68;100.00
70370;BME280;57790;51.356;-2.906;2023-04-26T15:20:11;101735.16;;;14.74;100.00
70370;BME280;57790;51.356;-2.906;2023-04-26T15:23:12;101743.16;;;14.74;100.00
70370;BME280;57790;51.356;-2.906;2023-04-26T15:26:13;101746.19;;;14.79;100.00
70370;BME280;57790;51.356;-2.906;2023-04-26T15:29:13;101742.16;;;14.75;100.00
70370;BME280;57790;51.356;-2.906;2023-04-26T15:32:13;101737.00;;;14.73;100.00
70370;BME280;57790;51.356;-2.906;2023-04-26T15:35:14;101738.66;;;14.74;100.00